sensor_id;sensor_type;location;lat;lon;timestamp;P1;durP1;ratioP1;P2;durP2;ratioP2
41201;SDS011;26936;50.524;8.684;2022-08-19T00:01:43;19.25;;;13.95;;
41201;SDS011;26936;50.524;8.684;2022-08-19T00:04:11;17.75;;;13.40;;
41201;SDS011;26936;50.524;8.684;2022-08-19T00:06:39;18.90;;;13.13;;
41201;SDS011;26936;50.524;8.684;2022-08-19T00:09:07;18.73;;;13.90;;
41201;SDS011;26936;50.524;8.684;2022-08-19T00:11:35;20.00;;;14.00;;
41201;SDS011;26936;50.524;8.684;2022-08-19T00:14:02;16.70;;;12.90;;
41201;SDS011;26936;50.524;8.684;2022-08-19T00:16:29;16.73;;;12.88;;
41201;SDS011;26936;50.524;8.684;2022-08-19T00:18:55;20.80;;;13.33;;
41201;SDS011;26936;50.524;8.684;2022-08-19T00:21:20;16.42;;;12.45;;
41201;SDS011;26936;50.524;8.684;2022-08-19T00:23:46;18.35;;;13.90;;
41201;SDS011;26936;50.524;8.684;2022-08-19T00:26:11;17.92;;;13.02;;
41201;SDS011;26936;50.524;8.684;2022-08-19T00:28:37;18.87;;;12.40;;
41201;SDS011;26936;50.524;8.684;2022-08-19T00:31:07;16.15;;;12.88;;
41201;SDS011;26936;50.524;8.684;2022-08-19T00:33:33;17.45;;;13.23;;
41201;SDS011;26936;50.524;8.684;2022-08-19T00:36:00;17.55;;;12.80;;
41201;SDS011;26936;50.524;8.684;2022-08-19T00:38:26;18.58;;;13.85;;
41201;SDS011;26936;50.524;8.684;2022-08-19T00:40:51;18.63;;;13.88;;
41201;SDS011;26936;50.524;8.684;2022-08-19T00:43:20;16.92;;;13.48;;
41201;SDS011;26936;50.524;8.684;2022-08-19T00:45:47;18.52;;;14.15;;
41201;SDS011;26936;50.524;8.684;2022-08-19T00:48:14;20.40;;;14.18;;
41201;SDS011;26936;50.524;8.684;2022-08-19T00:50:41;18.63;;;13.65;;
41201;SDS011;26936;50.524;8.684;2022-08-19T00:53:08;21.10;;;14.10;;
41201;SDS011;26936;50.524;8.684;2022-08-19T00:55:35;17.92;;;14.00;;
41201;SDS011;26936;50.524;8.684;2022-08-19T00:58:04;17.50;;;13.00;;
41201;SDS011;26936;50.524;8.684;2022-08-19T01:00:34;17.30;;;12.90;;
41201;SDS011;26936;50.524;8.684;2022-08-19T01:03:06;17.20;;;12.73;;
41201;SDS011;26936;50.524;8.684;2022-08-19T01:05:33;17.23;;;12.60;;
41201;SDS011;26936;50.524;8.684;2022-08-19T01:08:00;17.08;;;13.65;;
41201;SDS011;26936;50.524;8.684;2022-08-19T01:10:29;19.90;;;13.60;;
41201;SDS011;26936;50.524;8.684;2022-08-19T01:12:58;16.73;;;13.05;;
41201;SDS011;26936;50.524;8.684;2022-08-19T01:15:27;16.70;;;12.27;;
41201;SDS011;26936;50.524;8.684;2022-08-19T01:17:56;16.25;;;12.95;;
41201;SDS011;26936;50.524;8.684;2022-08-19T01:20:24;17.90;;;12.63;;
41201;SDS011;26936;50.524;8.684;2022-08-19T01:22:51;19.23;;;12.85;;
41201;SDS011;26936;50.524;8.684;2022-08-19T01:25:19;17.35;;;12.10;;
41201;SDS011;26936;50.524;8.684;2022-08-19T01:27:49;19.23;;;12.90;;
41201;SDS011;26936;50.524;8.684;2022-08-19T01:30:20;16.52;;;12.15;;
41201;SDS011;26936;50.524;8.684;2022-08-19T01:32:49;18.38;;;13.13;;
41201;SDS011;26936;50.524;8.684;2022-08-19T01:35:15;17.85;;;12.55;;
41201;SDS011;26936;50.524;8.684;2022-08-19T01:37:53;18.10;;;13.25;;
41201;SDS011;26936;50.524;8.684;2022-08-19T01:40:25;20.42;;;14.20;;
41201;SDS011;26936;50.524;8.684;2022-08-19T01:42:52;15.65;;;12.07;;
41201;SDS011;26936;50.524;8.684;2022-08-19T01:45:19;15.65;;;12.45;;
41201;SDS011;26936;50.524;8.684;2022-08-19T01:47:46;15.10;;;11.63;;
41201;SDS011;26936;50.524;8.684;2022-08-19T01:50:12;15.93;;;12.02;;
41201;SDS011;26936;50.524;8.684;2022-08-19T01:52:39;16.17;;;11.77;;
41201;SDS011;26936;50.524;8.684;2022-08-19T01:55:07;13.65;;;10.98;;
41201;SDS011;26936;50.524;8.684;2022-08-19T01:57:34;17.38;;;11.05;;
41201;SDS011;26936;50.524;8.684;2022-08-19T02:00:00;15.32;;;10.40;;
41201;SDS011;26936;50.524;8.684;2022-08-19T02:02:27;14.02;;;11.27;;
41201;SDS011;26936;50.524;8.684;2022-08-19T02:04:53;16.00;;;11.60;;
41201;SDS011;26936;50.524;8.684;2022-08-19T02:07:19;14.47;;;11.30;;
41201;SDS011;26936;50.524;8.684;2022-08-19T02:09:45;14.05;;;11.18;;
41201;SDS011;26936;50.524;8.684;2022-08-19T02:12:12;14.88;;;11.43;;
41201;SDS011;26936;50.524;8.684;2022-08-19T02:14:37;15.63;;;11.52;;
41201;SDS011;26936;50.524;8.684;2022-08-19T02:17:02;17.27;;;11.93;;
41201;SDS011;26936;50.524;8.684;2022-08-19T02:19:28;16.60;;;11.52;;
41201;SDS011;26936;50.524;8.684;2022-08-19T02:21:53;14.85;;;10.95;;
41201;SDS011;26936;50.524;8.684;2022-08-19T02:24:19;14.93;;;11.07;;
41201;SDS011;26936;50.524;8.684;2022-08-19T02:26:44;16.30;;;11.30;;
41201;SDS011;26936;50.524;8.684;2022-08-19T02:29:09;16.65;;;11.23;;
41201;SDS011;26936;50.524;8.684;2022-08-19T02:31:34;16.47;;;11.23;;
41201;SDS011;26936;50.524;8.684;2022-08-19T02:34:02;14.25;;;10.65;;
41201;SDS011;26936;50.524;8.684;2022-08-19T02:36:27;13.60;;;10.60;;
41201;SDS011;26936;50.524;8.684;2022-08-19T02:38:53;11.98;;;9.98;;
41201;SDS011;26936;50.524;8.684;2022-08-19T02:41:23;13.07;;;10.90;;
41201;SDS011;26936;50.524;8.684;2022-08-19T02:43:57;15.85;;;12.07;;
41201;SDS011;26936;50.524;8.684;2022-08-19T02:46:24;14.55;;;11.80;;
41201;SDS011;26936;50.524;8.684;2022-08-19T02:48:53;18.70;;;12.55;;
41201;SDS011;26936;50.524;8.684;2022-08-19T02:51:22;17.83;;;13.20;;
41201;SDS011;26936;50.524;8.684;2022-08-19T02:53:53;16.13;;;10.98;;
41201;SDS011;26936;50.524;8.684;2022-08-19T02:56:19;16.30;;;11.13;;
41201;SDS011;26936;50.524;8.684;2022-08-19T02:58:46;14.55;;;11.05;;
41201;SDS011;26936;50.524;8.684;2022-08-19T03:01:19;17.23;;;11.48;;
41201;SDS011;26936;50.524;8.684;2022-08-19T03:03:47;16.85;;;11.82;;
41201;SDS011;26936;50.524;8.684;2022-08-19T03:06:13;13.45;;;10.25;;
41201;SDS011;26936;50.524;8.684;2022-08-19T03:08:41;15.18;;;11.10;;
41201;SDS011;26936;50.524;8.684;2022-08-19T03:11:22;15.25;;;11.43;;
41201;SDS011;26936;50.524;8.684;2022-08-19T03:13:49;14.20;;;11.02;;
41201;SDS011;26936;50.524;8.684;2022-08-19T03:16:16;17.75;;;11.55;;
41201;SDS011;26936;50.524;8.684;2022-08-19T03:18:42;15.80;;;11.43;;
41201;SDS011;26936;50.524;8.684;2022-08-19T03:21:08;16.05;;;11.52;;
41201;SDS011;26936;50.524;8.684;2022-08-19T03:23:33;15.50;;;11.18;;
41201;SDS011;26936;50.524;8.684;2022-08-19T03:25:59;17.05;;;12.60;;
41201;SDS011;26936;50.524;8.684;2022-08-19T03:28:29;16.13;;;11.55;;
41201;SDS011;26936;50.524;8.684;2022-08-19T03:31:05;15.80;;;11.68;;
41201;SDS011;26936;50.524;8.684;2022-08-19T03:33:33;18.95;;;12.55;;
41201;SDS011;26936;50.524;8.684;2022-08-19T03:36:00;15.75;;;11.40;;
41201;SDS011;26936;50.524;8.684;2022-08-19T03:38:33;14.07;;;11.07;;
41201;SDS011;26936;50.524;8.684;2022-08-19T03:41:04;17.95;;;12.60;;
41201;SDS011;26936;50.524;8.684;2022-08-19T03:43:32;16.00;;;12.45;;
41201;SDS011;26936;50.524;8.684;2022-08-19T03:46:21;16.58;;;12.10;;
41201;SDS011;26936;50.524;8.684;2022-08-19T03:48:47;18.10;;;12.52;;
41201;SDS011;26936;50.524;8.684;2022-08-19T03:51:23;16.95;;;11.90;;
41201;SDS011;26936;50.524;8.684;2022-08-19T03:53:50;19.80;;;12.82;;
41201;SDS011;26936;50.524;8.684;2022-08-19T03:56:16;18.05;;;12.00;;
41201;SDS011;26936;50.524;8.684;2022-08-19T03:58:41;17.13;;;12.77;;
41201;SDS011;26936;50.524;8.684;2022-08-19T04:01:08;16.45;;;12.82;;
41201;SDS011;26936;50.524;8.684;2022-08-19T04:03:35;18.58;;;12.75;;
41201;SDS011;26936;50.524;8.684;2022-08-19T04:06:08;19.75;;;13.65;;
41201;SDS011;26936;50.524;8.684;2022-08-19T04:08:42;17.92;;;13.10;;
41201;SDS011;26936;50.524;8.684;2022-08-19T04:11:11;16.98;;;12.57;;
41201;SDS011;26936;50.524;8.684;2022-08-19T04:13:37;20.27;;;13.55;;
41201;SDS011;26936;50.524;8.684;2022-08-19T04:16:03;17.15;;;13.07;;
41201;SDS011;26936;50.524;8.684;2022-08-19T04:18:30;16.17;;;12.20;;
41201;SDS011;26936;50.524;8.684;2022-08-19T04:20:56;18.27;;;13.77;;
41201;SDS011;26936;50.524;8.684;2022-08-19T04:23:22;17.45;;;12.90;;
41201;SDS011;26936;50.524;8.684;2022-08-19T04:25:47;19.40;;;13.32;;
41201;SDS011;26936;50.524;8.684;2022-08-19T04:28:13;18.73;;;12.98;;
41201;SDS011;26936;50.524;8.684;2022-08-19T04:30:43;20.38;;;13.35;;
41201;SDS011;26936;50.524;8.684;2022-08-19T04:33:10;17.42;;;13.38;;
41201;SDS011;26936;50.524;8.684;2022-08-19T04:35:39;17.90;;;12.50;;
41201;SDS011;26936;50.524;8.684;2022-08-19T04:38:06;18.00;;;12.40;;
41201;SDS011;26936;50.524;8.684;2022-08-19T04:40:32;16.55;;;12.15;;
41201;SDS011;26936;50.524;8.684;2022-08-19T04:43:16;17.98;;;12.73;;
41201;SDS011;26936;50.524;8.684;2022-08-19T04:45:42;16.13;;;12.60;;
41201;SDS011;26936;50.524;8.684;2022-08-19T04:48:08;16.48;;;12.18;;
41201;SDS011;26936;50.524;8.684;2022-08-19T04:50:33;17.33;;;13.10;;
41201;SDS011;26936;50.524;8.684;2022-08-19T04:52:59;19.20;;;12.50;;
41201;SDS011;26936;50.524;8.684;2022-08-19T04:55:24;17.67;;;13.05;;
41201;SDS011;26936;50.524;8.684;2022-08-19T04:57:53;20.88;;;13.88;;
41201;SDS011;26936;50.524;8.684;2022-08-19T05:00:20;19.17;;;12.88;;
41201;SDS011;26936;50.524;8.684;2022-08-19T05:02:46;20.48;;;13.93;;
41201;SDS011;26936;50.524;8.684;2022-08-19T05:05:11;19.35;;;13.27;;
41201;SDS011;26936;50.524;8.684;2022-08-19T05:07:37;19.20;;;13.70;;
41201;SDS011;26936;50.524;8.684;2022-08-19T05:10:04;18.20;;;13.50;;
41201;SDS011;26936;50.524;8.684;2022-08-19T05:12:30;19.45;;;13.55;;
41201;SDS011;26936;50.524;8.684;2022-08-19T05:14:56;18.77;;;12.70;;
41201;SDS011;26936;50.524;8.684;2022-08-19T05:17:22;16.20;;;12.82;;
41201;SDS011;26936;50.524;8.684;2022-08-19T05:19:48;19.48;;;13.48;;
41201;SDS011;26936;50.524;8.684;2022-08-19T05:22:31;18.90;;;11.90;;
41201;SDS011;26936;50.524;8.684;2022-08-19T05:24:57;17.63;;;12.65;;
41201;SDS011;26936;50.524;8.684;2022-08-19T05:27:23;15.73;;;12.35;;
41201;SDS011;26936;50.524;8.684;2022-08-19T05:29:48;17.30;;;13.00;;
41201;SDS011;26936;50.524;8.684;2022-08-19T05:32:13;18.98;;;13.93;;
41201;SDS011;26936;50.524;8.684;2022-08-19T05:34:39;19.47;;;13.17;;
41201;SDS011;26936;50.524;8.684;2022-08-19T05:37:04;16.88;;;13.30;;
41201;SDS011;26936;50.524;8.684;2022-08-19T05:39:32;16.33;;;12.98;;
41201;SDS011;26936;50.524;8.684;2022-08-19T05:42:03;18.40;;;13.57;;
41201;SDS011;26936;50.524;8.684;2022-08-19T05:44:31;18.45;;;13.45;;
41201;SDS011;26936;50.524;8.684;2022-08-19T05:46:58;18.77;;;13.63;;
41201;SDS011;26936;50.524;8.684;2022-08-19T05:49:25;19.27;;;14.23;;
41201;SDS011;26936;50.524;8.684;2022-08-19T05:51:52;18.67;;;13.65;;
41201;SDS011;26936;50.524;8.684;2022-08-19T05:54:18;17.67;;;12.38;;
41201;SDS011;26936;50.524;8.684;2022-08-19T05:56:44;17.50;;;12.13;;
41201;SDS011;26936;50.524;8.684;2022-08-19T05:59:12;16.08;;;11.55;;
41201;SDS011;26936;50.524;8.684;2022-08-19T06:01:41;15.82;;;10.88;;
41201;SDS011;26936;50.524;8.684;2022-08-19T06:04:10;13.45;;;10.40;;
41201;SDS011;26936;50.524;8.684;2022-08-19T06:06:37;13.20;;;10.10;;
41201;SDS011;26936;50.524;8.684;2022-08-19T06:09:06;12.17;;;9.70;;
41201;SDS011;26936;50.524;8.684;2022-08-19T06:14:09;11.93;;;8.63;;
41201;SDS011;26936;50.524;8.684;2022-08-19T06:16:37;10.30;;;8.43;;
41201;SDS011;26936;50.524;8.684;2022-08-19T06:19:05;12.80;;;8.38;;
41201;SDS011;26936;50.524;8.684;2022-08-19T06:21:33;13.15;;;8.23;;
41201;SDS011;26936;50.524;8.684;2022-08-19T06:24:02;12.20;;;6.90;;
41201;SDS011;26936;50.524;8.684;2022-08-19T06:26:28;10.50;;;6.75;;
41201;SDS011;26936;50.524;8.684;2022-08-19T06:28:54;8.43;;;6.53;;
41201;SDS011;26936;50.524;8.684;2022-08-19T06:31:21;9.27;;;6.05;;
41201;SDS011;26936;50.524;8.684;2022-08-19T06:33:49;9.85;;;6.38;;
41201;SDS011;26936;50.524;8.684;2022-08-19T06:38:51;9.38;;;6.07;;
41201;SDS011;26936;50.524;8.684;2022-08-19T06:41:17;9.55;;;5.93;;
41201;SDS011;26936;50.524;8.684;2022-08-19T06:43:42;9.40;;;5.63;;
41201;SDS011;26936;50.524;8.684;2022-08-19T06:46:11;7.65;;;5.50;;
41201;SDS011;26936;50.524;8.684;2022-08-19T06:48:38;8.73;;;5.90;;
41201;SDS011;26936;50.524;8.684;2022-08-19T06:51:04;9.75;;;5.97;;
41201;SDS011;26936;50.524;8.684;2022-08-19T06:53:30;7.38;;;6.05;;
41201;SDS011;26936;50.524;8.684;2022-08-19T06:55:56;10.48;;;5.95;;
41201;SDS011;26936;50.524;8.684;2022-08-19T06:58:25;9.88;;;5.45;;
41201;SDS011;26936;50.524;8.684;2022-08-19T07:00:51;8.52;;;5.03;;
41201;SDS011;26936;50.524;8.684;2022-08-19T07:03:16;7.95;;;5.20;;
41201;SDS011;26936;50.524;8.684;2022-08-19T07:05:42;6.32;;;4.80;;
41201;SDS011;26936;50.524;8.684;2022-08-19T07:08:08;9.25;;;5.30;;
41201;SDS011;26936;50.524;8.684;2022-08-19T07:10:34;8.65;;;4.80;;
41201;SDS011;26936;50.524;8.684;2022-08-19T07:13:01;8.40;;;4.95;;
41201;SDS011;26936;50.524;8.684;2022-08-19T07:15:27;6.13;;;4.22;;
41201;SDS011;26936;50.524;8.684;2022-08-19T07:17:52;6.03;;;4.68;;
41201;SDS011;26936;50.524;8.684;2022-08-19T07:20:18;7.83;;;4.67;;
41201;SDS011;26936;50.524;8.684;2022-08-19T07:22:43;5.70;;;4.43;;
41201;SDS011;26936;50.524;8.684;2022-08-19T07:25:10;5.47;;;4.25;;
41201;SDS011;26936;50.524;8.684;2022-08-19T07:27:36;4.88;;;4.00;;
41201;SDS011;26936;50.524;8.684;2022-08-19T07:30:02;6.10;;;4.10;;
41201;SDS011;26936;50.524;8.684;2022-08-19T07:32:29;6.18;;;4.57;;
41201;SDS011;26936;50.524;8.684;2022-08-19T07:34:55;7.32;;;4.40;;
41201;SDS011;26936;50.524;8.684;2022-08-19T07:37:21;5.80;;;4.18;;
41201;SDS011;26936;50.524;8.684;2022-08-19T07:39:46;5.93;;;3.88;;
41201;SDS011;26936;50.524;8.684;2022-08-19T07:42:12;6.38;;;3.70;;
41201;SDS011;26936;50.524;8.684;2022-08-19T07:44:39;4.40;;;3.50;;
41201;SDS011;26936;50.524;8.684;2022-08-19T07:47:05;4.10;;;3.25;;
41201;SDS011;26936;50.524;8.684;2022-08-19T07:49:31;4.53;;;3.45;;
41201;SDS011;26936;50.524;8.684;2022-08-19T07:51:59;4.63;;;3.40;;
41201;SDS011;26936;50.524;8.684;2022-08-19T07:54:27;5.00;;;2.92;;
41201;SDS011;26936;50.524;8.684;2022-08-19T07:56:55;4.70;;;3.05;;
41201;SDS011;26936;50.524;8.684;2022-08-19T07:59:22;5.40;;;2.95;;
41201;SDS011;26936;50.524;8.684;2022-08-19T08:01:47;5.55;;;3.10;;
41201;SDS011;26936;50.524;8.684;2022-08-19T08:04:14;4.55;;;2.70;;
41201;SDS011;26936;50.524;8.684;2022-08-19T08:06:58;4.93;;;3.20;;
41201;SDS011;26936;50.524;8.684;2022-08-19T08:09:43;5.28;;;2.85;;
41201;SDS011;26936;50.524;8.684;2022-08-19T08:12:11;6.15;;;3.35;;
41201;SDS011;26936;50.524;8.684;2022-08-19T08:14:44;3.88;;;2.88;;
41201;SDS011;26936;50.524;8.684;2022-08-19T08:17:12;6.07;;;2.95;;
41201;SDS011;26936;50.524;8.684;2022-08-19T08:19:39;4.97;;;2.70;;
41201;SDS011;26936;50.524;8.684;2022-08-19T08:22:09;3.83;;;2.78;;
41201;SDS011;26936;50.524;8.684;2022-08-19T08:25:03;4.78;;;2.95;;
41201;SDS011;26936;50.524;8.684;2022-08-19T08:27:30;5.35;;;2.85;;
41201;SDS011;26936;50.524;8.684;2022-08-19T08:29:56;4.38;;;3.15;;
41201;SDS011;26936;50.524;8.684;2022-08-19T08:32:22;5.88;;;2.83;;
41201;SDS011;26936;50.524;8.684;2022-08-19T08:34:47;4.68;;;3.03;;
41201;SDS011;26936;50.524;8.684;2022-08-19T08:37:13;4.10;;;2.72;;
41201;SDS011;26936;50.524;8.684;2022-08-19T08:39:38;3.95;;;2.95;;
41201;SDS011;26936;50.524;8.684;2022-08-19T08:42:09;4.17;;;3.07;;
41201;SDS011;26936;50.524;8.684;2022-08-19T08:47:17;4.50;;;3.17;;
41201;SDS011;26936;50.524;8.684;2022-08-19T08:49:48;3.70;;;3.05;;
41201;SDS011;26936;50.524;8.684;2022-08-19T08:52:18;5.40;;;3.72;;
41201;SDS011;26936;50.524;8.684;2022-08-19T08:55:00;4.65;;;3.30;;
41201;SDS011;26936;50.524;8.684;2022-08-19T09:00:04;6.50;;;3.90;;
41201;SDS011;26936;50.524;8.684;2022-08-19T09:02:32;5.18;;;3.40;;
41201;SDS011;26936;50.524;8.684;2022-08-19T09:04:57;4.57;;;3.20;;
41201;SDS011;26936;50.524;8.684;2022-08-19T09:15:34;4.85;;;3.65;;
41201;SDS011;26936;50.524;8.684;2022-08-19T09:18:04;6.70;;;4.32;;
41201;SDS011;26936;50.524;8.684;2022-08-19T09:20:29;5.18;;;3.88;;
41201;SDS011;26936;50.524;8.684;2022-08-19T09:22:56;3.83;;;3.40;;
41201;SDS011;26936;50.524;8.684;2022-08-19T09:25:22;5.03;;;3.67;;
41201;SDS011;26936;50.524;8.684;2022-08-19T09:27:48;7.60;;;3.83;;
41201;SDS011;26936;50.524;8.684;2022-08-19T09:30:18;3.92;;;3.45;;
41201;SDS011;26936;50.524;8.684;2022-08-19T09:34:58;4.43;;;3.22;;
41201;SDS011;26936;50.524;8.684;2022-08-19T09:37:25;4.22;;;3.35;;
41201;SDS011;26936;50.524;8.684;2022-08-19T09:39:50;6.65;;;3.30;;
41201;SDS011;26936;50.524;8.684;2022-08-19T09:42:16;4.90;;;3.75;;
41201;SDS011;26936;50.524;8.684;2022-08-19T09:44:41;5.53;;;3.30;;
41201;SDS011;26936;50.524;8.684;2022-08-19T09:47:08;5.47;;;3.40;;
41201;SDS011;26936;50.524;8.684;2022-08-19T09:49:35;5.10;;;3.08;;
41201;SDS011;26936;50.524;8.684;2022-08-19T09:52:01;5.28;;;3.03;;
41201;SDS011;26936;50.524;8.684;2022-08-19T09:54:26;5.07;;;3.13;;
41201;SDS011;26936;50.524;8.684;2022-08-19T09:56:55;5.85;;;3.83;;
41201;SDS011;26936;50.524;8.684;2022-08-19T09:59:25;4.10;;;3.38;;
41201;SDS011;26936;50.524;8.684;2022-08-19T10:01:51;4.60;;;3.30;;
41201;SDS011;26936;50.524;8.684;2022-08-19T10:04:16;5.90;;;3.70;;
41201;SDS011;26936;50.524;8.684;2022-08-19T10:06:41;3.92;;;3.20;;
41201;SDS011;26936;50.524;8.684;2022-08-19T10:09:07;4.95;;;3.30;;
41201;SDS011;26936;50.524;8.684;2022-08-19T10:11:34;3.80;;;3.28;;
41201;SDS011;26936;50.524;8.684;2022-08-19T10:14:01;4.40;;;3.30;;
41201;SDS011;26936;50.524;8.684;2022-08-19T10:16:27;4.68;;;2.97;;
41201;SDS011;26936;50.524;8.684;2022-08-19T10:18:53;4.35;;;3.20;;
41201;SDS011;26936;50.524;8.684;2022-08-19T10:21:29;4.63;;;2.80;;
41201;SDS011;26936;50.524;8.684;2022-08-19T10:23:57;5.80;;;3.45;;
41201;SDS011;26936;50.524;8.684;2022-08-19T10:26:28;4.00;;;2.95;;
41201;SDS011;26936;50.524;8.684;2022-08-19T10:28:56;4.40;;;3.30;;
41201;SDS011;26936;50.524;8.684;2022-08-19T10:31:27;5.53;;;3.15;;
41201;SDS011;26936;50.524;8.684;2022-08-19T10:33:55;4.03;;;3.40;;
41201;SDS011;26936;50.524;8.684;2022-08-19T10:36:25;4.72;;;3.20;;
41201;SDS011;26936;50.524;8.684;2022-08-19T10:38:54;3.10;;;2.80;;
41201;SDS011;26936;50.524;8.684;2022-08-19T10:41:25;4.30;;;3.10;;
41201;SDS011;26936;50.524;8.684;2022-08-19T10:43:53;4.47;;;3.05;;
41201;SDS011;26936;50.524;8.684;2022-08-19T10:46:20;6.65;;;3.22;;
41201;SDS011;26936;50.524;8.684;2022-08-19T10:48:47;3.50;;;2.78;;
41201;SDS011;26936;50.524;8.684;2022-08-19T10:51:13;3.35;;;2.97;;
41201;SDS011;26936;50.524;8.684;2022-08-19T10:53:58;5.00;;;2.78;;
41201;SDS011;26936;50.524;8.684;2022-08-19T10:56:25;5.15;;;3.05;;
41201;SDS011;26936;50.524;8.684;2022-08-19T10:59:09;3.42;;;2.72;;
41201;SDS011;26936;50.524;8.684;2022-08-19T11:01:36;4.13;;;2.67;;
41201;SDS011;26936;50.524;8.684;2022-08-19T11:04:02;2.90;;;2.60;;
41201;SDS011;26936;50.524;8.684;2022-08-19T11:06:28;4.38;;;2.97;;
41201;SDS011;26936;50.524;8.684;2022-08-19T11:08:55;3.45;;;3.15;;
41201;SDS011;26936;50.524;8.684;2022-08-19T11:11:21;3.22;;;2.92;;
41201;SDS011;26936;50.524;8.684;2022-08-19T11:13:47;4.85;;;3.00;;
41201;SDS011;26936;50.524;8.684;2022-08-19T11:16:24;4.45;;;2.70;;
41201;SDS011;26936;50.524;8.684;2022-08-19T11:18:54;4.88;;;3.00;;
41201;SDS011;26936;50.524;8.684;2022-08-19T11:21:24;5.00;;;3.17;;
41201;SDS011;26936;50.524;8.684;2022-08-19T11:24:01;4.43;;;3.10;;
41201;SDS011;26936;50.524;8.684;2022-08-19T11:26:31;7.28;;;6.22;;
41201;SDS011;26936;50.524;8.684;2022-08-19T11:28:57;6.65;;;3.53;;
41201;SDS011;26936;50.524;8.684;2022-08-19T11:31:26;3.80;;;3.30;;
41201;SDS011;26936;50.524;8.684;2022-08-19T11:33:55;5.28;;;2.83;;
41201;SDS011;26936;50.524;8.684;2022-08-19T11:36:21;10.73;;;4.07;;
41201;SDS011;26936;50.524;8.684;2022-08-19T11:38:47;8.25;;;3.80;;
41201;SDS011;26936;50.524;8.684;2022-08-19T11:41:14;6.10;;;3.38;;
41201;SDS011;26936;50.524;8.684;2022-08-19T11:43:41;7.15;;;3.67;;
41201;SDS011;26936;50.524;8.684;2022-08-19T11:46:07;4.90;;;3.40;;
41201;SDS011;26936;50.524;8.684;2022-08-19T11:48:34;3.35;;;3.05;;
41201;SDS011;26936;50.524;8.684;2022-08-19T11:51:02;4.78;;;3.65;;
41201;SDS011;26936;50.524;8.684;2022-08-19T11:53:32;5.47;;;3.30;;
41201;SDS011;26936;50.524;8.684;2022-08-19T11:55:58;5.28;;;4.28;;
41201;SDS011;26936;50.524;8.684;2022-08-19T11:58:23;5.78;;;3.83;;
41201;SDS011;26936;50.524;8.684;2022-08-19T12:00:50;4.82;;;4.30;;
41201;SDS011;26936;50.524;8.684;2022-08-19T12:03:15;4.47;;;4.00;;
41201;SDS011;26936;50.524;8.684;2022-08-19T12:05:41;7.13;;;4.18;;
41201;SDS011;26936;50.524;8.684;2022-08-19T12:08:07;5.13;;;4.60;;
41201;SDS011;26936;50.524;8.684;2022-08-19T12:10:33;5.28;;;4.80;;
41201;SDS011;26936;50.524;8.684;2022-08-19T12:12:59;7.32;;;5.47;;
41201;SDS011;26936;50.524;8.684;2022-08-19T12:15:25;5.85;;;4.85;;
41201;SDS011;26936;50.524;8.684;2022-08-19T12:17:54;7.03;;;5.50;;
41201;SDS011;26936;50.524;8.684;2022-08-19T12:20:21;7.40;;;6.03;;
41201;SDS011;26936;50.524;8.684;2022-08-19T12:22:47;7.85;;;5.75;;
41201;SDS011;26936;50.524;8.684;2022-08-19T12:25:13;6.07;;;5.47;;
41201;SDS011;26936;50.524;8.684;2022-08-19T12:27:39;8.65;;;6.07;;
41201;SDS011;26936;50.524;8.684;2022-08-19T12:30:05;6.70;;;6.10;;
41201;SDS011;26936;50.524;8.684;2022-08-19T12:32:32;6.28;;;5.68;;
41201;SDS011;26936;50.524;8.684;2022-08-19T12:34:57;6.45;;;5.85;;
41201;SDS011;26936;50.524;8.684;2022-08-19T12:37:22;7.23;;;6.53;;
41201;SDS011;26936;50.524;8.684;2022-08-19T12:39:48;6.70;;;6.05;;
41201;SDS011;26936;50.524;8.684;2022-08-19T12:42:13;6.70;;;6.10;;
41201;SDS011;26936;50.524;8.684;2022-08-19T12:44:40;6.60;;;6.00;;
41201;SDS011;26936;50.524;8.684;2022-08-19T12:47:07;7.30;;;6.20;;
41201;SDS011;26936;50.524;8.684;2022-08-19T12:49:34;6.88;;;6.28;;
41201;SDS011;26936;50.524;8.684;2022-08-19T12:52:01;6.57;;;5.70;;
41201;SDS011;26936;50.524;8.684;2022-08-19T12:54:28;6.18;;;5.57;;
41201;SDS011;26936;50.524;8.684;2022-08-19T12:56:55;7.00;;;6.20;;
41201;SDS011;26936;50.524;8.684;2022-08-19T12:59:21;6.93;;;6.15;;
41201;SDS011;26936;50.524;8.684;2022-08-19T13:01:47;6.47;;;5.88;;
41201;SDS011;26936;50.524;8.684;2022-08-19T13:04:12;8.80;;;6.45;;
41201;SDS011;26936;50.524;8.684;2022-08-19T13:06:37;10.63;;;6.60;;
41201;SDS011;26936;50.524;8.684;2022-08-19T13:09:03;24.10;;;7.37;;
41201;SDS011;26936;50.524;8.684;2022-08-19T13:11:29;12.80;;;6.95;;
41201;SDS011;26936;50.524;8.684;2022-08-19T13:13:57;9.13;;;6.00;;
41201;SDS011;26936;50.524;8.684;2022-08-19T13:16:23;12.70;;;6.60;;
41201;SDS011;26936;50.524;8.684;2022-08-19T13:18:50;7.32;;;5.82;;
41201;SDS011;26936;50.524;8.684;2022-08-19T13:21:19;7.90;;;6.00;;
41201;SDS011;26936;50.524;8.684;2022-08-19T13:23:45;8.25;;;5.95;;
41201;SDS011;26936;50.524;8.684;2022-08-19T13:26:12;6.57;;;5.70;;
41201;SDS011;26936;50.524;8.684;2022-08-19T13:28:38;6.40;;;5.70;;
41201;SDS011;26936;50.524;8.684;2022-08-19T13:31:23;6.43;;;5.70;;
41201;SDS011;26936;50.524;8.684;2022-08-19T13:34:09;5.70;;;5.10;;
41201;SDS011;26936;50.524;8.684;2022-08-19T13:36:35;5.10;;;4.60;;
41201;SDS011;26936;50.524;8.684;2022-08-19T13:39:01;5.47;;;4.97;;
41201;SDS011;26936;50.524;8.684;2022-08-19T13:41:28;5.22;;;4.72;;
41201;SDS011;26936;50.524;8.684;2022-08-19T13:43:53;4.90;;;4.40;;
41201;SDS011;26936;50.524;8.684;2022-08-19T13:46:19;6.60;;;5.13;;
41201;SDS011;26936;50.524;8.684;2022-08-19T13:48:45;6.32;;;5.28;;
41201;SDS011;26936;50.524;8.684;2022-08-19T13:51:10;5.88;;;4.40;;
41201;SDS011;26936;50.524;8.684;2022-08-19T13:53:36;6.63;;;5.38;;
41201;SDS011;26936;50.524;8.684;2022-08-19T13:56:06;5.32;;;4.55;;
41201;SDS011;26936;50.524;8.684;2022-08-19T13:58:33;7.00;;;5.13;;
41201;SDS011;26936;50.524;8.684;2022-08-19T14:00:58;6.13;;;4.47;;
41201;SDS011;26936;50.524;8.684;2022-08-19T14:03:24;5.90;;;4.50;;
41201;SDS011;26936;50.524;8.684;2022-08-19T14:05:50;5.43;;;4.20;;
41201;SDS011;26936;50.524;8.684;2022-08-19T14:08:15;4.53;;;4.10;;
41201;SDS011;26936;50.524;8.684;2022-08-19T14:10:41;4.50;;;4.05;;
41201;SDS011;26936;50.524;8.684;2022-08-19T14:13:09;5.07;;;4.45;;
41201;SDS011;26936;50.524;8.684;2022-08-19T14:15:34;4.73;;;4.30;;
41201;SDS011;26936;50.524;8.684;2022-08-19T14:17:59;5.07;;;4.10;;
41201;SDS011;26936;50.524;8.684;2022-08-19T14:20:25;5.07;;;4.57;;
41201;SDS011;26936;50.524;8.684;2022-08-19T14:22:50;5.00;;;4.20;;
41201;SDS011;26936;50.524;8.684;2022-08-19T14:25:17;7.50;;;4.73;;
41201;SDS011;26936;50.524;8.684;2022-08-19T14:27:45;5.05;;;4.55;;
41201;SDS011;26936;50.524;8.684;2022-08-19T14:30:12;5.65;;;4.60;;
41201;SDS011;26936;50.524;8.684;2022-08-19T14:32:39;4.30;;;3.90;;
41201;SDS011;26936;50.524;8.684;2022-08-19T14:35:05;6.40;;;4.85;;
41201;SDS011;26936;50.524;8.684;2022-08-19T14:37:32;6.03;;;4.78;;
41201;SDS011;26936;50.524;8.684;2022-08-19T14:39:59;6.03;;;4.55;;
41201;SDS011;26936;50.524;8.684;2022-08-19T14:42:24;5.40;;;4.33;;
41201;SDS011;26936;50.524;8.684;2022-08-19T14:44:49;5.80;;;4.97;;
41201;SDS011;26936;50.524;8.684;2022-08-19T14:47:14;5.43;;;4.77;;
41201;SDS011;26936;50.524;8.684;2022-08-19T14:49:40;6.77;;;4.57;;
41201;SDS011;26936;50.524;8.684;2022-08-19T14:52:05;4.90;;;4.40;;
41201;SDS011;26936;50.524;8.684;2022-08-19T14:54:31;5.90;;;5.20;;
41201;SDS011;26936;50.524;8.684;2022-08-19T14:56:57;18.90;;;6.22;;
41201;SDS011;26936;50.524;8.684;2022-08-19T14:59:22;7.50;;;5.27;;